Time;durP1;ratioP1;P1;durP2;ratioP2;P2;SDS_P1;SDS_P2;PMS_P1;PMS_P2;Temp;Humidity;BMP_temperature;BMP_pressure;BME280_temperature;BME280_humidity;BME280_pressure;Samples;Min_cycle;Max_cycle;Signal;HPM_P1;HPM_P2
2022/01/23 00:00:21;;;;;;;2.63;2.43;;;6.60;1.00;;;;;;5093750;28;20419;-72
2022/01/23 00:02:49;;;;;;;2.60;2.40;;;6.70;1.00;;;;;;5094551;28;20399;-71
2022/01/23 00:05:16;;;;;;;2.60;2.43;;;6.70;1.00;;;;;;5093964;28;20777;-74
2022/01/23 00:07:44;;;;;;;2.80;2.60;;;6.70;1.00;;;;;;5094349;28;20428;-73
2022/01/23 00:10:10;;;;;;;2.50;2.30;;;6.70;1.00;;;;;;5093510;28;20469;-72
2022/01/23 00:12:51;;;;;;;2.87;2.67;;;6.70;1.00;;;;;;5094701;28;20391;-74
2022/01/23 00:18:01;;;;;;;2.07;1.97;;;6.70;1.00;;;;;;5094138;28;20490;-76
2022/01/23 00:20:27;;;;;;;3.50;2.67;;;6.70;1.00;;;;;;5075290;28;20510;-74
2022/01/23 00:22:59;;;;;;;3.90;2.90;;;6.70;1.00;;;;;;5093769;28;20240;-72
2022/01/23 00:30:57;;;;;;;1.93;1.80;;;6.70;1.00;;;;;;5093757;28;20926;-71
2022/01/23 00:33:23;;;;;;;2.60;2.40;;;6.80;1.00;;;;;;5094028;28;20399;-75
2022/01/23 00:35:49;;;;;;;3.30;2.93;;;6.80;1.00;;;;;;5094178;28;20403;-71
2022/01/23 00:38:17;;;;;;;2.90;2.60;;;6.80;1.00;;;;;;5093463;28;20165;-73
2022/01/23 00:40:44;;;;;;;2.43;2.33;;;6.80;1.00;;;;;;5074698;28;20514;-73
2022/01/23 00:43:26;;;;;;;2.20;2.10;;;6.90;1.00;;;;;;5093914;28;20441;-73
2022/01/23 00:45:57;;;;;;;2.50;2.40;;;6.90;1.00;;;;;;5093784;28;20439;-74
2022/01/23 00:48:28;;;;;;;2.90;2.70;;;6.80;1.00;;;;;;5093627;28;20757;-72
2022/01/23 00:50:53;;;;;;;10.03;2.77;;;6.90;1.00;;;;;;5075103;28;20499;-71
2022/01/23 00:53:19;;;;;;;3.97;3.03;;;6.90;1.00;;;;;;5093772;28;20872;-75
2022/01/23 00:55:46;;;;;;;2.53;2.33;;;6.90;1.00;;;;;;5092981;28;20165;-74
2022/01/23 00:58:14;;;;;;;3.83;3.13;;;6.90;1.00;;;;;;5093646;28;20772;-72
2022/01/23 01:00:41;;;;;;;3.40;3.10;;;6.90;1.00;;;;;;5092717;28;20787;-71
2022/01/23 01:03:07;;;;;;;3.50;3.20;;;6.90;1.00;;;;;;5093520;28;20411;-73
2022/01/23 01:05:33;;;;;;;3.27;3.00;;;6.90;1.00;;;;;;5093412;28;20443;-73
2022/01/23 01:08:01;;;;;;;3.83;3.40;;;6.90;1.00;;;;;;5093255;28;20484;-70
2022/01/23 01:10:35;;;;;;;3.20;2.97;;;6.90;1.00;;;;;;5092511;28;20416;-71
2022/01/23 01:13:02;;;;;;;3.27;3.03;;;6.90;1.00;;;;;;5092810;28;20391;-74
2022/01/23 01:16:38;;;;;;;3.07;2.70;;;6.80;1.00;;;;;;5075213;28;20419;-71
2022/01/23 01:32:07;;;;;;;3.30;2.87;;;6.90;1.00;;;;;;5092809;28;21009;-76
2022/01/23 01:34:41;;;;;;;3.57;3.27;;;6.80;1.00;;;;;;5093237;28;20430;-72
2022/01/23 01:37:09;;;;;;;2.73;1.90;;;6.80;1.00;;;;;;5093029;28;20481;-73
2022/01/23 01:39:35;;;;;;;4.10;2.23;;;6.80;1.00;;;;;;5092218;28;20439;-71
2022/01/23 01:42:01;;;;;;;3.27;3.07;;;6.80;1.00;;;;;;5092808;28;20463;-73
2022/01/23 01:44:27;;;;;;;3.73;2.83;;;6.80;1.00;;;;;;5093064;28;20178;-71
2022/01/23 01:46:53;;;;;;;3.03;2.83;;;6.80;1.00;;;;;;5092834;28;20209;-76
2022/01/23 01:49:28;;;;;;;2.60;2.40;;;6.90;1.00;;;;;;5073784;28;20398;-72
2022/01/23 01:51:56;;;;;;;3.00;2.40;;;6.90;1.00;;;;;;5092899;28;20430;-71
2022/01/23 01:54:24;;;;;;;2.70;2.50;;;6.90;1.00;;;;;;5092891;28;20399;-71
2022/01/23 01:56:53;;;;;;;2.80;2.60;;;6.90;1.00;;;;;;5092857;28;20410;-74
2022/01/23 02:23:19;;;;;;;3.63;2.90;;;6.90;1.00;;;;;;5077194;28;20415;-74
2022/01/23 02:55:46;;;;;;;3.07;2.47;;;7.00;1.00;;;;;;5095575;28;20752;-74
2022/01/23 02:58:15;;;;;;;2.60;2.40;;;7.10;1.00;;;;;;5095730;28;20395;-71
2022/01/23 03:01:07;;;;;;;2.47;2.00;;;7.10;1.00;;;;;;5094885;28;20472;-73
2022/01/23 03:03:36;;;;;;;3.30;3.00;;;7.00;1.00;;;;;;5095881;28;20768;-73
2022/01/23 03:06:21;;;;;;;3.27;2.90;;;7.10;1.00;;;;;;5095748;28;20446;-74
2022/01/23 03:30:49;;;;;;;3.07;2.87;;;7.10;1.00;;;;;;5094476;28;20395;-72
2022/01/23 03:32:47;;;;;;;2.90;2.70;;;7.00;1.00;;;;;;5086786;28;20190;-73
2022/01/23 03:35:13;;;;;;;3.70;2.70;;;7.00;1.00;;;;;;5094767;28;20503;-74
2022/01/23 03:37:39;;;;;;;3.03;2.83;;;7.10;1.00;;;;;;5095161;28;20404;-73
2022/01/23 03:40:06;;;;;;;2.33;2.10;;;7.10;1.00;;;;;;5094188;28;20400;-72
2022/01/23 03:42:38;;;;;;;2.70;2.50;;;7.10;1.00;;;;;;5095043;28;20481;-73
2022/01/23 03:50:32;;;;;;;3.10;2.50;;;7.10;1.00;;;;;;5094052;28;20407;-73
2022/01/23 03:52:58;;;;;;;2.70;1.90;;;7.00;1.00;;;;;;5093389;28;20399;-73
2022/01/23 03:55:23;;;;;;;1.60;1.50;;;7.00;1.00;;;;;;5094783;28;20165;-76
2022/01/23 03:57:49;;;;;;;1.63;1.53;;;7.00;1.00;;;;;;5094822;28;20167;-71
2022/01/23 04:00:17;;;;;;;2.57;2.27;;;7.00;1.00;;;;;;5093665;28;20269;-71
2022/01/23 04:02:43;;;;;;;2.10;2.00;;;7.00;1.00;;;;;;5094741;28;20546;-75
2022/01/23 04:05:09;;;;;;;1.80;1.70;;;7.00;1.00;;;;;;5094525;28;20500;-74
2022/01/23 04:07:36;;;;;;;2.33;2.13;;;7.00;1.00;;;;;;5094491;28;20436;-73
2022/01/23 04:10:02;;;;;;;1.90;1.70;;;6.90;1.00;;;;;;5093116;28;20935;-73
2022/01/23 04:15:17;;;;;;;2.10;1.90;;;7.00;1.00;;;;;;5094311;28;20392;-73
2022/01/23 04:33:56;;;;;;;2.43;2.23;;;6.90;1.00;;;;;;5094248;28;20402;-71
2022/01/23 04:48:38;;;;;;;8.30;2.50;;;7.00;1.00;;;;;;5093054;28;20454;-72
2022/01/23 05:01:27;;;;;;;2.53;2.33;;;7.00;1.00;;;;;;5093605;28;20454;-72
2022/01/23 05:06:29;;;;;;;2.40;2.20;;;6.90;1.00;;;;;;5093420;28;20454;-73
2022/01/23 05:08:55;;;;;;;3.17;2.20;;;7.00;1.00;;;;;;5092468;28;20423;-72
2022/01/23 05:11:20;;;;;;;2.90;2.70;;;6.90;1.00;;;;;;5093491;28;20446;-71
2022/01/23 05:13:47;;;;;;;4.13;2.10;;;7.00;1.00;;;;;;5093327;28;20248;-73
2022/01/23 05:16:13;;;;;;;2.40;2.30;;;6.90;1.00;;;;;;5093310;28;20414;-73
2022/01/23 05:18:39;;;;;;;3.07;2.50;;;7.00;1.00;;;;;;5092470;28;20414;-73
2022/01/23 05:23:53;;;;;;;2.30;2.20;;;7.00;1.00;;;;;;5071870;28;20575;-74
2022/01/23 05:26:19;;;;;;;2.67;2.47;;;7.10;1.00;;;;;;5093118;28;20906;-72
2022/01/23 05:28:44;;;;;;;3.27;2.60;;;7.10;1.00;;;;;;5092424;28;20165;-75
2022/01/23 05:31:10;;;;;;;3.37;3.07;;;7.00;1.00;;;;;;5093264;28;20181;-73
2022/01/23 05:33:35;;;;;;;2.30;2.10;;;7.10;1.00;;;;;;5093174;28;20509;-74
2022/01/23 05:36:01;;;;;;;3.20;2.87;;;7.10;1.00;;;;;;5093132;28;20170;-73
2022/01/23 05:38:27;;;;;;;2.57;2.43;;;7.10;1.00;;;;;;5093021;28;20162;-74
2022/01/23 05:40:57;;;;;;;5.80;2.87;;;7.10;1.00;;;;;;5073818;28;20534;-72
2022/01/23 05:43:24;;;;;;;3.30;3.00;;;7.10;1.00;;;;;;5075134;28;20169;-73
2022/01/23 05:45:49;;;;;;;3.10;2.90;;;7.10;1.00;;;;;;5092912;28;20459;-74
2022/01/23 05:48:16;;;;;;;2.87;2.67;;;7.10;1.00;;;;;;5093052;28;20397;-74
2022/01/23 05:50:42;;;;;;;6.13;2.50;;;7.20;1.00;;;;;;5092229;28;20185;-75
2022/01/23 05:53:08;;;;;;;5.20;2.70;;;7.20;1.00;;;;;;5074962;28;20855;-72
2022/01/23 05:55:33;;;;;;;2.80;2.60;;;7.10;1.00;;;;;;5092989;28;20431;-72
2022/01/23 05:57:59;;;;;;;7.00;2.67;;;7.10;1.00;;;;;;5092927;28;20256;-73
2022/01/23 06:00:25;;;;;;;2.60;2.40;;;7.10;1.00;;;;;;5084277;28;20213;-72
2022/01/23 06:02:52;;;;;;;2.77;2.37;;;7.10;1.00;;;;;;5092896;28;20228;-72
2022/01/23 06:05:17;;;;;;;3.50;2.73;;;7.20;1.00;;;;;;5092905;28;20197;-74
2022/01/23 06:07:43;;;;;;;2.53;2.23;;;7.20;1.00;;;;;;5092681;28;20415;-72
2022/01/23 06:10:19;;;;;;;2.70;2.50;;;7.20;1.00;;;;;;5091704;28;20181;-74
2022/01/23 06:12:44;;;;;;;2.60;2.50;;;7.00;1.00;;;;;;5092960;28;20192;-73
2022/01/23 06:15:10;;;;;;;2.60;2.37;;;7.10;1.00;;;;;;5094502;28;20395;-74
2022/01/23 06:17:36;;;;;;;2.87;2.67;;;7.10;1.00;;;;;;5096757;28;20180;-72
2022/01/23 06:20:02;;;;;;;3.30;3.00;;;7.10;1.00;;;;;;5095141;28;20178;-74
2022/01/23 06:22:28;;;;;;;2.67;2.40;;;7.10;1.00;;;;;;5096712;28;20162;-73
2022/01/23 06:24:53;;;;;;;8.93;3.07;;;7.00;1.00;;;;;;5096658;28;20771;-72
2022/01/23 06:27:19;;;;;;;3.37;2.63;;;7.10;1.00;;;;;;5096696;28;20669;-73
2022/01/23 06:29:45;;;;;;;3.33;2.73;;;7.10;1.00;;;;;;5095587;28;20168;-74
2022/01/23 06:32:12;;;;;;;2.90;2.60;;;7.20;1.00;;;;;;5096314;28;20178;-73
2022/01/23 06:34:38;;;;;;;3.27;2.77;;;7.20;1.00;;;;;;5096634;28;20975;-72
2022/01/23 06:37:04;;;;;;;3.83;2.83;;;7.10;1.00;;;;;;5095542;28;20506;-73
2022/01/23 06:39:31;;;;;;;3.43;2.90;;;7.20;1.00;;;;;;5095524;28;20205;-74
2022/01/23 06:41:59;;;;;;;2.93;2.63;;;7.10;1.00;;;;;;5096382;28;20783;-72
2022/01/23 06:44:27;;;;;;;2.80;2.20;;;7.20;1.00;;;;;;5095311;28;20411;-71
2022/01/23 06:46:54;;;;;;;8.00;2.63;;;7.20;1.00;;;;;;5078015;28;20461;-71
2022/01/23 06:49:19;;;;;;;2.30;2.10;;;7.20;1.00;;;;;;5093099;28;20216;-72
2022/01/23 06:51:49;;;;;;;3.60;3.30;;;7.20;1.00;;;;;;5078072;28;20475;-70
2022/01/23 06:54:15;;;;;;;2.23;2.03;;;7.20;1.00;;;;;;5077475;28;20169;-73
2022/01/23 06:56:42;;;;;;;2.87;2.63;;;7.20;1.00;;;;;;5094820;28;20414;-71
2022/01/23 06:59:08;;;;;;;3.63;2.60;;;7.20;1.00;;;;;;5077353;28;20407;-71
2022/01/23 07:01:34;;;;;;;4.40;2.93;;;7.10;1.00;;;;;;5095836;28;20481;-73
2022/01/23 07:04:00;;;;;;;2.83;2.53;;;7.20;1.00;;;;;;5095901;28;20699;-72
2022/01/23 07:06:26;;;;;;;2.50;2.30;;;7.20;1.00;;;;;;5095479;28;20573;-73
2022/01/23 07:08:51;;;;;;;2.50;2.27;;;7.20;1.00;;;;;;5076797;28;20440;-73
2022/01/23 07:11:17;;;;;;;3.00;2.57;;;7.20;1.00;;;;;;5095803;28;20264;-71
2022/01/23 07:13:42;;;;;;;2.13;2.03;;;7.20;1.00;;;;;;5095153;28;20161;-74
2022/01/23 07:16:08;;;;;;;2.50;2.30;;;7.10;1.00;;;;;;5095676;28;20231;-73
2022/01/23 07:18:34;;;;;;;2.77;2.50;;;7.10;1.00;;;;;;5094742;28;20507;-74
2022/01/23 07:21:00;;;;;;;3.03;2.70;;;7.10;1.00;;;;;;5095471;28;20268;-74
2022/01/23 07:23:25;;;;;;;2.70;2.50;;;7.10;1.00;;;;;;5094252;28;20204;-73
2022/01/23 07:25:51;;;;;;;2.73;2.63;;;7.20;1.00;;;;;;5095556;28;20599;-72
2022/01/23 07:28:20;;;;;;;2.97;2.50;;;7.20;1.00;;;;;;5077224;28;20166;-74
2022/01/23 07:33:12;;;;;;;3.00;2.70;;;7.20;1.00;;;;;;5095065;28;20465;-73
2022/01/23 07:35:37;;;;;;;2.77;2.30;;;7.10;1.00;;;;;;5095294;28;20208;-72
2022/01/23 07:38:03;;;;;;;3.23;2.93;;;7.20;1.00;;;;;;5077073;28;20578;-73
2022/01/23 07:40:29;;;;;;;3.27;1.83;;;7.10;1.00;;;;;;5094206;28;20185;-73
2022/01/23 07:42:54;;;;;;;2.90;2.50;;;7.10;1.00;;;;;;5095097;28;20530;-72
2022/01/23 07:45:20;;;;;;;2.67;2.30;;;7.10;1.00;;;;;;5095060;28;20213;-74
2022/01/23 07:47:45;;;;;;;3.57;3.20;;;7.10;1.00;;;;;;5094885;28;20192;-76
2022/01/23 07:50:11;;;;;;;2.80;2.60;;;7.10;1.00;;;;;;5093480;28;20190;-73
2022/01/23 07:52:38;;;;;;;3.10;2.90;;;7.10;1.00;;;;;;5094986;28;20169;-74
2022/01/23 07:55:10;;;;;;;10.93;2.33;;;7.20;1.00;;;;;;5094853;28;20400;-73
2022/01/23 07:57:37;;;;;;;2.83;2.63;;;7.20;1.00;;;;;;5094844;28;20404;-75
2022/01/23 08:00:04;;;;;;;2.40;2.20;;;7.30;1.00;;;;;;5093690;28;20764;-74
2022/01/23 08:02:31;;;;;;;3.47;2.57;;;7.30;1.00;;;;;;5094546;28;20984;-73
2022/01/23 08:04:56;;;;;;;2.57;2.40;;;7.30;1.00;;;;;;5094057;28;20938;-77
2022/01/23 08:07:31;;;;;;;5.00;3.50;;;7.30;1.00;;;;;;5094266;28;20445;-75
2022/01/23 08:10:03;;;;;;;2.77;2.57;;;7.30;1.00;;;;;;5077100;28;20563;-74
2022/01/23 08:12:30;;;;;;;4.03;2.60;;;7.40;1.00;;;;;;5094604;28;20436;-74
2022/01/23 08:14:57;;;;;;;4.37;3.50;;;7.40;1.00;;;;;;5094394;28;20827;-73
2022/01/23 16:50:56;;;;;;;5.83;4.23;;;6.70;1.00;;;;;;5069688;28;20681;-72
2022/01/23 16:53:22;;;;;;;10.20;2.63;;;6.70;1.00;;;;;;5070455;28;20407;-74
2022/01/23 16:55:52;;;;;;;6.83;2.90;;;6.70;1.00;;;;;;5070329;28;20491;-75
2022/01/23 16:58:17;;;;;;;4.17;3.83;;;6.80;1.00;;;;;;5069573;28;20162;-72
2022/01/23 17:00:43;;;;;;;4.63;3.07;;;6.90;1.00;;;;;;5068582;28;20762;-72
2022/01/23 17:03:08;;;;;;;4.70;2.60;;;6.90;1.00;;;;;;5070147;28;20169;-75
2022/01/23 17:05:34;;;;;;;3.93;3.57;;;6.90;1.00;;;;;;5070205;28;20216;-75
2022/01/23 17:08:00;;;;;;;10.63;2.80;;;6.90;1.00;;;;;;5070111;28;20166;-75
2022/01/23 17:10:25;;;;;;;2.70;2.50;;;6.90;1.00;;;;;;5066895;28;20204;-75
2022/01/23 17:12:52;;;;;;;5.23;2.90;;;6.90;1.00;;;;;;5049992;28;20179;-71
2022/01/23 17:15:17;;;;;;;3.53;2.60;;;7.00;1.00;;;;;;5049816;28;20163;-73
2022/01/23 17:17:43;;;;;;;3.10;2.90;;;7.00;1.00;;;;;;5048400;28;20815;-73
2022/01/23 17:20:09;;;;;;;7.20;2.30;;;7.00;1.00;;;;;;5047903;28;20198;-75
2022/01/23 17:22:35;;;;;;;3.73;2.63;;;7.00;1.00;;;;;;5049844;28;20178;-73
2022/01/23 17:25:01;;;;;;;3.57;2.50;;;7.00;1.00;;;;;;5049900;28;20767;-73
2022/01/23 17:27:26;;;;;;;4.00;2.93;;;7.00;1.00;;;;;;5068211;28;20221;-72
2022/01/23 17:29:52;;;;;;;2.80;2.70;;;7.00;1.00;;;;;;5068588;28;20202;-74
2022/01/23 17:32:21;;;;;;;3.63;2.80;;;7.00;1.00;;;;;;5069294;28;20174;-71
2022/01/23 17:34:47;;;;;;;5.63;3.40;;;7.00;1.00;;;;;;5067549;28;20162;-76
2022/01/23 17:37:13;;;;;;;3.93;3.60;;;7.00;1.00;;;;;;5068766;28;20403;-70
2022/01/23 17:39:39;;;;;;;5.40;3.90;;;7.00;1.00;;;;;;5068443;28;20405;-75
2022/01/23 17:42:09;;;;;;;4.57;4.27;;;7.00;1.00;;;;;;5054476;28;20265;-70
2022/01/23 17:44:37;;;;;;;5.90;3.87;;;6.90;1.00;;;;;;5049370;28;20760;-75
2022/01/23 17:47:56;;;;;;;2.70;2.50;;;6.90;1.00;;;;;;5049380;28;20405;-72
2022/01/23 17:49:55;;;;;;;3.63;3.33;;;6.90;1.00;;;;;;5047468;28;21041;-75
2022/01/23 17:52:22;;;;;;;4.63;3.70;;;6.80;1.00;;;;;;5048006;28;20911;-71
2022/01/23 17:54:48;;;;;;;4.67;3.70;;;6.80;1.00;;;;;;5049315;28;20743;-71
2022/01/23 17:57:14;;;;;;;6.87;3.17;;;6.90;1.00;;;;;;5066160;28;20446;-76
2022/01/23 17:59:39;;;;;;;3.40;2.90;;;6.90;1.00;;;;;;5066903;28;20186;-75
2022/01/23 18:02:05;;;;;;;3.60;3.30;;;6.90;1.00;;;;;;5056573;28;20194;-75
2022/01/23 18:04:31;;;;;;;5.87;3.33;;;6.90;1.00;;;;;;5055757;28;20167;-72
2022/01/23 18:07:03;;;;;;;3.20;3.00;;;6.80;1.00;;;;;;5055627;28;20624;-74
2022/01/23 18:09:29;;;;;;;5.37;3.20;;;6.80;1.00;;;;;;5042061;28;20207;-76
2022/01/23 18:11:55;;;;;;;6.17;3.90;;;6.70;1.00;;;;;;5034216;28;21002;-75
2022/01/23 18:14:21;;;;;;;4.00;3.60;;;6.70;1.00;;;;;;5035690;28;20170;-70
2022/01/23 18:16:46;;;;;;;5.63;3.03;;;6.60;1.00;;;;;;5034916;28;20205;-70
2022/01/23 18:19:12;;;;;;;5.03;3.50;;;6.60;1.00;;;;;;5034644;28;20575;-75
2022/01/23 18:21:38;;;;;;;10.27;3.00;;;6.60;1.00;;;;;;5035337;28;20183;-71
2022/01/23 18:24:07;;;;;;;6.30;3.30;;;6.50;1.00;;;;;;5035571;28;20230;-76
2022/01/23 18:26:44;;;;;;;4.73;3.93;;;6.50;1.00;;;;;;5035408;28;20840;-70
2022/01/23 18:29:13;;;;;;;2.67;2.43;;;6.50;1.00;;;;;;5034431;28;20456;-75
2022/01/23 18:31:39;;;;;;;4.87;3.20;;;6.40;1.00;;;;;;5040334;28;20439;-72
2022/01/23 18:34:04;;;;;;;3.83;3.53;;;6.40;1.00;;;;;;5054799;28;20466;-72
2022/01/23 18:36:34;;;;;;;3.90;3.60;;;6.40;1.00;;;;;;5054917;28;20167;-75
2022/01/23 18:39:01;;;;;;;4.57;3.90;;;6.40;1.00;;;;;;5054293;28;20883;-71
2022/01/23 18:41:28;;;;;;;3.40;3.03;;;6.50;1.00;;;;;;5055057;28;20429;-72
2022/01/23 18:43:54;;;;;;;5.50;3.67;;;6.50;1.00;;;;;;5054985;28;20901;-74
2022/01/23 18:46:19;;;;;;;4.47;3.20;;;6.50;1.00;;;;;;5049677;28;20977;-71
2022/01/23 18:48:45;;;;;;;4.37;3.97;;;6.50;1.00;;;;;;5034084;28;20465;-75
2022/01/23 18:51:11;;;;;;;4.43;3.93;;;6.50;1.00;;;;;;5034928;28;20749;-71
2022/01/23 18:53:44;;;;;;;4.73;4.30;;;6.40;1.00;;;;;;5034283;28;20497;-74
2022/01/23 18:56:20;;;;;;;7.53;5.73;;;6.50;1.00;;;;;;5033611;28;20600;-73
2022/01/23 18:58:53;;;;;;;5.07;4.27;;;6.50;1.00;;;;;;5033957;28;20434;-75
2022/01/23 19:01:20;;;;;;;16.93;6.57;;;6.60;1.00;;;;;;5041415;28;20436;-74
2022/01/23 19:04:01;;;;;;;8.37;6.60;;;6.60;1.00;;;;;;5054448;28;20936;-73
2022/01/23 19:06:35;;;;;;;5.30;4.90;;;6.50;1.00;;;;;;5054451;28;20455;-71
2022/01/23 19:09:12;;;;;;;10.00;5.30;;;6.50;1.00;;;;;;5053532;28;20506;-70
2022/01/23 19:11:38;;;;;;;8.10;5.87;;;6.50;1.00;;;;;;5053664;28;20817;-71
2022/01/23 19:14:04;;;;;;;9.50;5.33;;;6.60;1.00;;;;;;5053653;28;20436;-71
2022/01/23 19:16:30;;;;;;;9.10;5.40;;;6.60;1.00;;;;;;5042256;28;20422;-76
2022/01/23 19:18:56;;;;;;;9.17;5.50;;;6.60;1.00;;;;;;5033535;28;20246;-73
2022/01/23 19:21:22;;;;;;;9.03;5.53;;;6.60;1.00;;;;;;5034423;28;20790;-70
2022/01/23 19:23:47;;;;;;;8.40;5.80;;;6.50;1.00;;;;;;5034174;28;20407;-71
2022/01/23 19:26:14;;;;;;;7.03;5.40;;;6.50;1.00;;;;;;5034194;28;20494;-70
2022/01/23 19:28:41;;;;;;;10.77;6.10;;;6.50;1.00;;;;;;5032933;28;20195;-72
2022/01/23 19:31:08;;;;;;;6.17;5.57;;;6.50;1.00;;;;;;5039618;28;20452;-76
2022/01/23 19:33:36;;;;;;;5.90;5.30;;;6.50;1.00;;;;;;5041765;28;20404;-74
2022/01/23 19:36:01;;;;;;;7.17;5.77;;;6.40;1.00;;;;;;5034021;28;20459;-70
2022/01/23 19:38:28;;;;;;;9.43;5.73;;;6.40;1.00;;;;;;5033442;28;20418;-75
2022/01/23 19:45:54;;;;;;;7.10;5.97;;;6.50;1.00;;;;;;5033943;28;20744;-70
2022/01/23 19:48:30;;;;;;;9.70;6.27;;;6.50;1.00;;;;;;5033180;28;20398;-71
2022/01/23 19:50:56;;;;;;;14.70;5.80;;;6.40;1.00;;;;;;5032446;28;20442;-74
2022/01/23 19:53:21;;;;;;;8.10;6.97;;;6.40;1.00;;;;;;5032894;28;20403;-70
2022/01/23 19:55:48;;;;;;;7.13;5.93;;;6.40;1.00;;;;;;5033661;28;20218;-76
2022/01/23 19:58:15;;;;;;;9.50;5.77;;;6.40;1.00;;;;;;5033624;28;20160;-72
2022/01/23 20:00:45;;;;;;;10.10;6.43;;;6.40;1.00;;;;;;5032805;28;20446;-76
2022/01/23 20:03:11;;;;;;;6.40;5.77;;;6.40;1.00;;;;;;5033566;28;20764;-74
2022/01/23 20:05:36;;;;;;;12.83;6.70;;;6.40;1.00;;;;;;5033400;28;20401;-75
2022/01/23 20:08:02;;;;;;;6.10;5.50;;;6.40;1.00;;;;;;5033215;28;20536;-75
2022/01/23 20:12:57;;;;;;;19.43;5.33;;;6.40;1.00;;;;;;5033554;28;20402;-70
2022/01/23 20:15:24;;;;;;;8.30;5.80;;;6.40;1.00;;;;;;5033447;28;20906;-75
2022/01/23 20:17:51;;;;;;;10.67;7.90;;;6.30;1.00;;;;;;5033270;28;20398;-74
2022/01/23 20:20:18;;;;;;;8.60;6.50;;;6.30;1.00;;;;;;5032351;28;20796;-70
2022/01/23 20:22:43;;;;;;;6.67;5.60;;;6.30;1.00;;;;;;5033323;28;20887;-75
2022/01/23 20:25:10;;;;;;;6.00;5.33;;;6.30;1.00;;;;;;5032910;28;20411;-75
2022/01/23 20:27:38;;;;;;;6.93;5.90;;;6.30;1.00;;;;;;5032670;28;20521;-75
2022/01/23 20:30:05;;;;;;;7.90;5.40;;;6.30;1.00;;;;;;5032309;28;20449;-69
2022/01/23 20:32:31;;;;;;;6.50;5.30;;;6.20;1.00;;;;;;5032988;28;20494;-74
2022/01/23 20:34:58;;;;;;;7.20;4.93;;;6.20;1.00;;;;;;5031847;28;20505;-70
2022/01/23 20:37:24;;;;;;;10.90;5.60;;;6.30;1.00;;;;;;5033241;28;20160;-68
2022/01/23 20:39:50;;;;;;;5.60;4.93;;;6.30;1.00;;;;;;5032168;28;20433;-70
2022/01/23 20:42:16;;;;;;;5.37;4.60;;;6.30;1.00;;;;;;5032587;28;20492;-75
2022/01/23 20:44:47;;;;;;;9.47;6.10;;;6.30;1.00;;;;;;5032847;28;20923;-70
2022/01/23 20:47:13;;;;;;;12.03;6.10;;;6.30;1.00;;;;;;5032931;28;20225;-69
2022/01/23 20:49:39;;;;;;;11.60;4.33;;;6.30;1.00;;;;;;5031998;28;20457;-70
2022/01/23 20:52:12;;;;;;;7.03;5.37;;;6.30;1.00;;;;;;5033062;28;20422;-69
2022/01/23 20:54:37;;;;;;;9.23;5.37;;;6.30;1.00;;;;;;5032978;28;20675;-75
2022/01/23 20:57:03;;;;;;;7.03;4.37;;;6.20;1.00;;;;;;5032870;28;20490;-75
2022/01/23 20:59:29;;;;;;;5.70;5.20;;;6.30;1.00;;;;;;5032089;28;20636;-70
2022/01/23 21:01:55;;;;;;;6.87;4.33;;;6.30;1.00;;;;;;5032663;28;20246;-74
2022/01/23 21:04:21;;;;;;;5.47;4.63;;;6.30;1.00;;;;;;5032435;28;20394;-70
2022/01/23 21:06:47;;;;;;;6.63;4.30;;;6.30;1.00;;;;;;5032925;28;20886;-71
2022/01/23 21:09:13;;;;;;;5.10;4.73;;;6.30;1.00;;;;;;5031880;28;20450;-75
2022/01/23 21:11:39;;;;;;;7.13;4.10;;;6.30;1.00;;;;;;5032805;28;20209;-70
2022/01/23 21:14:20;;;;;;;9.47;5.47;;;6.30;1.00;;;;;;5032874;28;20428;-70
2022/01/23 21:17:09;;;;;;;4.57;4.27;;;6.30;1.00;;;;;;5032787;28;20398;-70
2022/01/23 21:33:08;;;;;;;7.63;4.70;;;6.30;1.00;;;;;;5032591;28;20406;-76
2022/01/23 21:40:49;;;;;;;10.10;5.67;;;6.20;1.00;;;;;;5035631;28;20435;-75
2022/01/23 21:43:15;;;;;;;5.87;4.40;;;6.30;1.00;;;;;;5036072;28;20410;-74
2022/01/23 21:45:44;;;;;;;10.03;4.60;;;6.20;1.00;;;;;;5036283;28;20172;-70
2022/01/23 21:48:10;;;;;;;16.47;6.27;;;6.20;1.00;;;;;;5036321;28;20167;-76
2022/01/23 21:50:39;;;;;;;5.27;4.70;;;6.20;1.00;;;;;;5033800;28;20516;-69
2022/01/23 21:53:04;;;;;;;7.23;3.57;;;6.30;1.00;;;;;;5036045;28;20430;-75
2022/01/23 21:55:30;;;;;;;7.37;4.03;;;6.30;1.00;;;;;;5035466;28;20460;-76
2022/01/23 21:57:55;;;;;;;8.93;4.07;;;6.30;1.00;;;;;;5036039;28;20250;-75
2022/01/23 22:00:21;;;;;;;13.93;5.13;;;6.30;1.00;;;;;;5034989;28;20199;-69
2022/01/23 22:02:47;;;;;;;6.23;4.57;;;6.30;1.00;;;;;;5034727;28;20199;-76
2022/01/23 22:05:12;;;;;;;6.40;4.80;;;6.30;1.00;;;;;;5035790;28;20262;-75
2022/01/23 22:07:40;;;;;;;5.87;4.33;;;6.30;1.00;;;;;;5035732;28;20163;-70
2022/01/23 22:13:10;;;;;;;4.33;3.67;;;6.30;1.00;;;;;;5035094;28;20433;-70
2022/01/23 22:18:21;;;;;;;16.00;5.20;;;6.40;1.00;;;;;;5035819;28;20544;-74
2022/01/23 22:20:46;;;;;;;4.93;4.53;;;6.40;1.00;;;;;;5034836;28;20445;-75
2022/01/23 22:23:17;;;;;;;4.90;4.50;;;6.40;1.00;;;;;;5035403;28;20178;-75
2022/01/23 22:28:27;;;;;;;13.03;5.57;;;6.30;1.00;;;;;;5035155;28;20484;-70
2022/01/23 22:30:53;;;;;;;5.47;4.53;;;6.30;1.00;;;;;;5034056;28;20492;-71
2022/01/23 22:33:19;;;;;;;10.03;4.60;;;6.30;1.00;;;;;;5035317;28;20163;-70
2022/01/23 22:35:46;;;;;;;7.00;4.97;;;6.20;1.00;;;;;;5035156;28;20168;-75
2022/01/23 22:38:13;;;;;;;5.67;5.17;;;6.20;1.00;;;;;;5035305;28;20167;-75
2022/01/23 22:40:39;;;;;;;5.97;4.83;;;6.30;1.00;;;;;;5034256;28;20603;-76
2022/01/23 22:43:04;;;;;;;8.23;4.70;;;6.20;1.00;;;;;;5035137;28;20421;-75
2022/01/23 22:45:56;;;;;;;5.43;4.90;;;6.30;1.00;;;;;;5035112;28;20159;-74
2022/01/23 22:48:18;;;;;;;6.00;5.00;;;6.30;1.00;;;;;;5034134;28;20187;-70
2022/01/23 22:50:44;;;;;;;6.83;6.20;;;6.30;1.00;;;;;;5033991;28;20462;-75
2022/01/23 22:53:09;;;;;;;13.27;5.93;;;6.30;1.00;;;;;;5034951;28;20179;-76
2022/01/23 22:55:35;;;;;;;7.03;5.57;;;6.40;1.00;;;;;;5034845;28;20575;-71
2022/01/23 22:58:01;;;;;;;9.90;6.47;;;6.30;1.00;;;;;;5034902;28;20175;-75
2022/01/23 23:00:37;;;;;;;13.00;6.00;;;6.30;1.00;;;;;;5033786;28;20195;-69
2022/01/23 23:03:11;;;;;;;7.43;5.27;;;6.30;1.00;;;;;;5034516;28;20595;-75
2022/01/23 23:05:41;;;;;;;7.83;5.63;;;6.30;1.00;;;;;;5034419;28;20417;-75
2022/01/23 23:08:07;;;;;;;12.40;6.50;;;6.20;1.00;;;;;;5034753;28;20467;-69
2022/01/23 23:10:38;;;;;;;9.33;6.40;;;6.20;1.00;;;;;;5033600;28;20541;-69
2022/01/23 23:13:23;;;;;;;7.70;5.33;;;6.20;1.00;;;;;;5034507;28;20400;-75
2022/01/23 23:16:06;;;;;;;6.63;5.60;;;6.20;1.00;;;;;;5034457;28;20442;-70
2022/01/23 23:18:50;;;;;;;6.10;5.50;;;6.20;1.00;;;;;;5033621;28;20497;-70
2022/01/23 23:21:22;;;;;;;8.17;4.93;;;6.20;1.00;;;;;;5034019;28;20930;-75
2022/01/23 23:23:47;;;;;;;8.10;5.50;;;6.20;1.00;;;;;;5034117;28;20426;-74
2022/01/23 23:26:14;;;;;;;9.17;5.90;;;6.20;1.00;;;;;;5034278;28;20516;-75
2022/01/23 23:28:44;;;;;;;14.90;6.13;;;6.20;1.00;;;;;;5033388;28;20163;-76
2022/01/23 23:31:10;;;;;;;8.00;5.00;;;6.30;1.00;;;;;;5034168;28;20509;-76
2022/01/23 23:33:36;;;;;;;9.20;6.53;;;6.30;1.00;;;;;;5034136;28;20395;-74
2022/01/23 23:36:04;;;;;;;14.67;5.33;;;6.30;1.00;;;;;;5034114;28;20494;-70
2022/01/23 23:38:30;;;;;;;7.63;6.20;;;6.30;1.00;;;;;;5033363;28;20174;-74
2022/01/23 23:41:18;;;;;;;8.03;5.50;;;6.30;1.00;;;;;;5033335;28;20425;-71
2022/01/23 23:46:12;;;;;;;7.37;5.63;;;6.30;1.00;;;;;;5033944;28;20401;-74
2022/01/23 23:48:48;;;;;;;13.90;6.00;;;6.30;1.00;;;;;;5032878;28;20195;-75
2022/01/23 23:51:14;;;;;;;12.73;6.63;;;6.30;1.00;;;;;;5033796;28;20422;-69
2022/01/23 23:53:39;;;;;;;8.13;5.53;;;6.30;1.00;;;;;;5033856;28;20429;-75
2022/01/23 23:56:05;;;;;;;7.80;5.13;;;6.30;1.00;;;;;;5033889;28;20656;-70
2022/01/23 23:58:30;;;;;;;5.87;4.90;;;6.20;1.00;;;;;;5032384;28;20236;-73
